Time;durP1;ratioP1;P1;durP2;ratioP2;P2;SDS_P1;SDS_P2;PMS_P1;PMS_P2;Temp;Humidity;BMP_temperature;BMP_pressure;BME280_temperature;BME280_humidity;BME280_pressure;Samples;Min_cycle;Max_cycle;Signal;HPM_P1;HPM_P2
2022/09/30 00:01:18;;;;;;;10.75;8.40;;;11.90;99.90;;;;;;4915743;29;20028;-85
2022/09/30 00:03:43;;;;;;;13.35;7.20;;;11.80;99.90;;;;;;4932342;29;20051;-86
2022/09/30 00:06:10;;;;;;;10.13;6.45;;;11.80;99.90;;;;;;4931137;29;20091;-86
2022/09/30 00:08:39;;;;;;;10.35;6.70;;;11.80;99.90;;;;;;4931211;29;20036;-86
2022/09/30 00:11:08;;;;;;;10.65;6.22;;;11.80;99.90;;;;;;4931134;29;20056;-85
2022/09/30 00:13:36;;;;;;;8.80;6.80;;;11.80;99.90;;;;;;4930909;29;20039;-86
2022/09/30 00:16:03;;;;;;;7.68;6.55;;;11.70;99.90;;;;;;4931255;29;20055;-86
2022/09/30 00:18:30;;;;;;;8.00;5.20;;;11.70;99.90;;;;;;4931763;29;20020;-86
2022/09/30 00:20:56;;;;;;;7.18;5.65;;;11.70;99.90;;;;;;4931982;29;20116;-86
2022/09/30 00:23:22;;;;;;;7.82;5.05;;;11.70;99.90;;;;;;4932166;29;20029;-86
2022/09/30 00:25:49;;;;;;;5.97;5.47;;;11.60;99.90;;;;;;4915017;29;20028;-86
2022/09/30 00:28:16;;;;;;;3.47;3.00;;;11.60;99.90;;;;;;4932033;29;20490;-87
2022/09/30 00:30:42;;;;;;;4.97;3.40;;;11.60;99.90;;;;;;4930754;29;20036;-85
2022/09/30 00:33:08;;;;;;;4.72;4.07;;;11.60;99.90;;;;;;4931568;29;20035;-86
2022/09/30 00:35:36;;;;;;;3.58;3.28;;;11.50;99.90;;;;;;4930626;29;20036;-85
2022/09/30 00:38:03;;;;;;;10.27;5.30;;;11.50;99.90;;;;;;4930864;29;20036;-86
2022/09/30 00:40:29;;;;;;;3.65;3.35;;;11.50;99.90;;;;;;4931800;29;20125;-86
2022/09/30 00:42:55;;;;;;;5.22;3.38;;;11.50;99.90;;;;;;4931595;29;20036;-86
2022/09/30 00:45:22;;;;;;;4.03;3.15;;;11.50;99.90;;;;;;4930693;29;20039;-86
2022/09/30 00:48:04;;;;;;;5.63;3.50;;;11.50;99.90;;;;;;4931370;29;20060;-86
2022/09/30 00:50:54;;;;;;;3.92;3.63;;;11.50;99.90;;;;;;4929555;29;20043;-86
2022/09/30 00:53:29;;;;;;;3.25;2.95;;;11.40;99.90;;;;;;4931606;29;20033;-85
2022/09/30 00:56:12;;;;;;;3.42;3.13;;;11.40;99.90;;;;;;4931574;29;20036;-85
2022/09/30 00:58:41;;;;;;;4.55;4.07;;;11.40;99.90;;;;;;4930290;29;20036;-87
2022/09/30 01:01:08;;;;;;;4.35;3.28;;;11.40;99.90;;;;;;4930289;29;20032;-86
2022/09/30 01:03:50;;;;;;;10.68;4.80;;;11.30;99.90;;;;;;4930328;29;20043;-85
2022/09/30 01:06:18;;;;;;;5.72;3.47;;;11.30;99.90;;;;;;4931423;29;20028;-86
2022/09/30 01:08:45;;;;;;;4.63;4.22;;;11.30;99.90;;;;;;4931245;29;20028;-86
2022/09/30 01:11:11;;;;;;;5.20;3.25;;;11.30;99.90;;;;;;4930255;29;20032;-86
2022/09/30 01:13:40;;;;;;;3.53;3.22;;;11.30;99.90;;;;;;4930329;29;20067;-86
2022/09/30 01:16:52;;;;;;;3.83;3.40;;;11.20;99.90;;;;;;4929833;29;20036;-86
2022/09/30 01:19:27;;;;;;;3.55;3.25;;;11.20;99.90;;;;;;4929747;29;20039;-85
2022/09/30 01:22:14;;;;;;;6.32;3.50;;;11.20;99.90;;;;;;4930943;29;20044;-86
2022/09/30 01:25:00;;;;;;;3.42;3.10;;;11.20;99.90;;;;;;4930116;29;20032;-86
2022/09/30 01:27:53;;;;;;;3.50;3.20;;;11.10;99.90;;;;;;4931228;29;20032;-86
2022/09/30 01:30:20;;;;;;;8.40;4.07;;;11.10;99.90;;;;;;4925496;29;20497;-86
2022/09/30 01:33:09;;;;;;;4.32;3.92;;;11.10;99.90;;;;;;4917856;29;20028;-85
2022/09/30 01:36:02;;;;;;;4.03;3.75;;;11.10;99.90;;;;;;4930565;29;20181;-86
2022/09/30 01:39:06;;;;;;;5.07;4.65;;;11.00;99.90;;;;;;4931036;29;20051;-86
2022/09/30 01:41:47;;;;;;;4.15;3.85;;;11.00;99.90;;;;;;4909676;29;20471;-86
2022/09/30 01:44:21;;;;;;;5.82;4.70;;;11.00;99.90;;;;;;4910567;29;20092;-86
2022/09/30 01:47:24;;;;;;;4.82;3.58;;;11.00;99.90;;;;;;4929588;29;20028;-86
2022/09/30 01:49:53;;;;;;;5.30;4.70;;;10.90;99.90;;;;;;4926131;29;20032;-86
2022/09/30 01:52:34;;;;;;;15.88;5.05;;;10.90;99.90;;;;;;4910517;29;20033;-86
2022/09/30 01:55:12;;;;;;;4.82;4.43;;;10.90;99.90;;;;;;4910580;29;20069;-86
2022/09/30 01:58:01;;;;;;;5.40;4.07;;;10.90;99.90;;;;;;4910388;29;20040;-86
2022/09/30 02:00:27;;;;;;;6.70;4.57;;;10.90;99.90;;;;;;4910043;29;20038;-86
2022/09/30 02:03:03;;;;;;;4.15;3.78;;;10.80;99.90;;;;;;4913294;29;20037;-86
2022/09/30 02:05:37;;;;;;;6.53;5.43;;;10.90;99.90;;;;;;4909971;29;20095;-86
2022/09/30 02:08:20;;;;;;;4.10;3.75;;;10.80;99.90;;;;;;4910138;29;20033;-87
2022/09/30 02:10:59;;;;;;;7.25;4.13;;;10.80;99.90;;;;;;4911403;29;20081;-86
2022/09/30 02:13:44;;;;;;;4.25;3.85;;;10.80;99.90;;;;;;4911385;29;20028;-85
2022/09/30 02:16:14;;;;;;;4.95;4.55;;;10.80;99.90;;;;;;4910201;29;20036;-86
2022/09/30 02:19:08;;;;;;;5.60;5.07;;;10.80;99.90;;;;;;4940136;29;20064;-87
2022/09/30 02:21:39;;;;;;;4.72;4.32;;;10.80;99.90;;;;;;4944554;29;20108;-86
2022/09/30 02:24:09;;;;;;;4.25;3.95;;;10.70;99.90;;;;;;4928730;29;20036;-86
2022/09/30 02:26:40;;;;;;;;;;;10.70;99.90;;;;;;4929094;29;20032;-86
2022/09/30 02:29:09;;;;;;;4.75;3.72;;;10.70;99.90;;;;;;4944531;29;19911;-86
2022/09/30 02:31:40;;;;;;;4.85;4.38;;;10.70;99.90;;;;;;4939154;29;20043;-86
2022/09/30 02:34:31;;;;;;;5.03;4.53;;;10.70;99.90;;;;;;4929431;29;20032;-85
2022/09/30 02:37:08;;;;;;;5.45;4.93;;;10.60;99.90;;;;;;4928625;29;20104;-86
2022/09/30 02:39:40;;;;;;;5.60;4.47;;;10.60;99.90;;;;;;4928479;29;20489;-87
2022/09/30 02:42:14;;;;;;;5.13;4.63;;;10.60;99.90;;;;;;4929669;29;20036;-86
2022/09/30 02:44:40;;;;;;;6.53;5.05;;;10.60;99.90;;;;;;4912897;29;20028;-86
2022/09/30 02:47:30;;;;;;;5.30;4.85;;;10.50;99.90;;;;;;4928379;29;20024;-85
2022/09/30 02:50:17;;;;;;;6.10;5.03;;;10.60;99.90;;;;;;4929612;29;20044;-86
2022/09/30 02:53:10;;;;;;;7.05;5.22;;;10.50;99.90;;;;;;4928516;29;20461;-86
2022/09/30 02:55:48;;;;;;;5.63;4.18;;;10.50;99.90;;;;;;4912660;29;20413;-86
2022/09/30 02:58:18;;;;;;;6.50;4.78;;;10.50;99.90;;;;;;4912679;29;20040;-86
2022/09/30 03:00:44;;;;;;;6.85;6.18;;;10.50;99.90;;;;;;4929853;29;20032;-87
2022/09/30 03:03:49;;;;;;;4.53;3.85;;;10.40;99.90;;;;;;4928087;29;20123;-86
2022/09/30 03:06:15;;;;;;;4.65;4.35;;;10.40;99.90;;;;;;4928230;29;20031;-86
2022/09/30 03:08:41;;;;;;;6.70;4.28;;;10.40;99.90;;;;;;4928247;29;20096;-86
2022/09/30 03:11:16;;;;;;;4.50;4.10;;;10.40;99.90;;;;;;4928476;29;20036;-86
2022/09/30 03:13:57;;;;;;;5.53;5.00;;;10.40;99.90;;;;;;4931550;29;20124;-86
2022/09/30 03:16:44;;;;;;;3.97;3.67;;;10.40;99.90;;;;;;4916024;29;20371;-85
2022/09/30 03:19:11;;;;;;;5.32;4.72;;;10.40;99.90;;;;;;4913121;29;20036;-86
2022/09/30 03:21:54;;;;;;;4.95;4.57;;;10.40;99.90;;;;;;4912940;29;20064;-85
2022/09/30 03:24:50;;;;;;;6.43;4.97;;;10.40;99.90;;;;;;4914320;29;20060;-86
2022/09/30 03:27:42;;;;;;;5.95;5.05;;;10.30;99.90;;;;;;4914353;29;20048;-86
2022/09/30 03:30:40;;;;;;;6.65;4.70;;;10.30;99.90;;;;;;4914492;29;20032;-86
2022/09/30 03:33:28;;;;;;;5.57;5.05;;;10.30;99.90;;;;;;4932540;29;20055;-86
2022/09/30 03:36:06;;;;;;;6.32;5.40;;;10.30;99.90;;;;;;4931787;29;20115;-86
2022/09/30 03:38:43;;;;;;;5.00;4.60;;;10.30;99.90;;;;;;4931824;29;20040;-86
2022/09/30 03:41:21;;;;;;;7.07;4.95;;;10.30;99.90;;;;;;4932861;29;20034;-85
2022/09/30 03:43:56;;;;;;;5.38;4.97;;;10.20;99.90;;;;;;4932911;29;20410;-86
2022/09/30 03:46:42;;;;;;;5.82;5.10;;;10.20;99.90;;;;;;4931643;29;20028;-86
2022/09/30 03:49:13;;;;;;;6.28;5.53;;;10.20;99.90;;;;;;4912350;29;20079;-87
2022/09/30 03:51:40;;;;;;;5.72;5.22;;;10.20;99.90;;;;;;4912837;29;20033;-86
2022/09/30 03:54:11;;;;;;;6.60;5.25;;;10.10;99.90;;;;;;4912527;29;20024;-86
2022/09/30 03:56:41;;;;;;;5.70;4.90;;;10.10;99.90;;;;;;4928296;29;20024;-86
2022/09/30 03:59:26;;;;;;;8.50;7.75;;;10.10;99.90;;;;;;4912317;29;20100;-87
2022/09/30 04:01:52;;;;;;;5.30;4.90;;;10.10;99.90;;;;;;4917477;29;20031;-86
2022/09/30 04:04:18;;;;;;;7.75;6.80;;;10.10;99.90;;;;;;4931508;29;20029;-86
2022/09/30 04:06:44;;;;;;;5.95;5.35;;;10.10;99.90;;;;;;4931005;29;20123;-86
2022/09/30 04:09:10;;;;;;;8.07;7.30;;;10.10;99.90;;;;;;4931136;29;20047;-86
2022/09/30 04:11:36;;;;;;;8.02;6.97;;;10.10;99.90;;;;;;4932558;29;20056;-86
2022/09/30 04:14:02;;;;;;;7.07;6.43;;;10.00;99.90;;;;;;4915489;29;20029;-86
2022/09/30 04:16:28;;;;;;;6.45;5.90;;;10.10;99.90;;;;;;4930770;29;20028;-87
2022/09/30 04:18:55;;;;;;;12.93;6.60;;;10.00;99.90;;;;;;4931987;29;20048;-86
2022/09/30 04:21:21;;;;;;;6.53;6.00;;;10.00;99.90;;;;;;4931894;29;20054;-86
2022/09/30 04:23:48;;;;;;;8.95;4.95;;;10.00;99.90;;;;;;4930871;29;20024;-86
2022/09/30 04:26:16;;;;;;;7.90;5.00;;;10.00;99.90;;;;;;4915182;29;20035;-86
2022/09/30 04:28:42;;;;;;;5.55;5.03;;;10.00;99.90;;;;;;4914882;29;20127;-86
2022/09/30 04:31:10;;;;;;;7.43;6.38;;;10.00;99.90;;;;;;4925216;29;20027;-86
2022/09/30 04:33:37;;;;;;;6.38;5.80;;;10.00;99.90;;;;;;4916363;29;20020;-87
2022/09/30 04:36:03;;;;;;;6.20;5.60;;;10.00;99.90;;;;;;4911850;29;20067;-86
2022/09/30 04:38:30;;;;;;;5.30;4.78;;;10.00;99.90;;;;;;4912776;29;20092;-87
2022/09/30 04:40:56;;;;;;;6.25;5.72;;;9.90;99.90;;;;;;4926889;29;20498;-87
2022/09/30 04:43:23;;;;;;;8.38;6.80;;;9.90;99.90;;;;;;4931776;29;20032;-86
2022/09/30 04:45:54;;;;;;;6.30;5.68;;;9.90;99.90;;;;;;4929546;29;20107;-86
2022/09/30 04:48:23;;;;;;;7.00;6.43;;;9.90;99.90;;;;;;4928429;29;20028;-86
2022/09/30 04:50:50;;;;;;;15.00;8.55;;;9.90;99.90;;;;;;4927490;29;20033;-86
2022/09/30 04:53:17;;;;;;;9.15;5.93;;;9.90;99.90;;;;;;4914965;29;20043;-85
2022/09/30 04:55:44;;;;;;;6.35;5.72;;;9.90;99.90;;;;;;4927807;29;20485;-85
2022/09/30 04:58:11;;;;;;;7.15;5.32;;;9.90;99.90;;;;;;4926135;29;20414;-85
2022/09/30 05:00:37;;;;;;;7.75;7.15;;;9.90;99.90;;;;;;4914681;29;20024;-85
2022/09/30 05:03:04;;;;;;;7.20;6.70;;;9.90;99.90;;;;;;4914822;29;20921;-85
2022/09/30 05:05:31;;;;;;;7.35;6.70;;;9.80;99.90;;;;;;4915093;29;20374;-85
2022/09/30 05:08:01;;;;;;;7.82;6.47;;;9.80;99.90;;;;;;4899934;29;20047;-85
2022/09/30 05:10:28;;;;;;;6.55;5.95;;;9.80;99.90;;;;;;4931245;29;20089;-85
2022/09/30 05:12:55;;;;;;;7.65;7.07;;;9.80;99.90;;;;;;4915678;29;20032;-85
2022/09/30 05:15:21;;;;;;;7.85;7.15;;;9.80;99.90;;;;;;4930015;29;20032;-86
2022/09/30 05:17:48;;;;;;;7.25;6.65;;;9.80;99.90;;;;;;4912648;29;20047;-85
2022/09/30 05:20:14;;;;;;;8.20;7.10;;;9.80;99.90;;;;;;4918594;29;20043;-84
2022/09/30 05:22:40;;;;;;;7.85;7.13;;;9.70;99.90;;;;;;4915924;29;20028;-85
2022/09/30 05:25:06;;;;;;;5.25;4.85;;;9.60;99.90;;;;;;4930897;29;20043;-85
2022/09/30 05:27:32;;;;;;;7.15;6.45;;;9.50;99.90;;;;;;4898801;29;20021;-85
2022/09/30 05:29:58;;;;;;;5.15;4.65;;;9.50;99.90;;;;;;4932228;29;20055;-85
2022/09/30 05:32:24;;;;;;;8.18;6.47;;;9.40;99.90;;;;;;4903277;29;20048;-85
2022/09/30 05:34:50;;;;;;;7.72;7.13;;;9.40;99.90;;;;;;4927407;29;20064;-85
2022/09/30 05:37:16;;;;;;;9.52;7.20;;;9.40;99.90;;;;;;4931887;29;20036;-85
2022/09/30 05:39:42;;;;;;;8.85;6.70;;;9.40;99.90;;;;;;4912261;29;20068;-85
2022/09/30 05:42:08;;;;;;;6.57;5.97;;;9.40;99.90;;;;;;4921575;29;20032;-85
2022/09/30 05:44:34;;;;;;;6.65;6.05;;;9.40;99.90;;;;;;4911689;29;20103;-85
2022/09/30 05:47:00;;;;;;;6.22;5.63;;;9.40;99.90;;;;;;4896218;29;20414;-85
2022/09/30 05:49:25;;;;;;;6.30;5.80;;;9.40;99.90;;;;;;4912599;29;20036;-85
2022/09/30 05:51:52;;;;;;;6.80;6.18;;;9.30;99.90;;;;;;4929925;29;20061;-85
2022/09/30 05:54:17;;;;;;;11.93;8.30;;;9.40;99.90;;;;;;4932442;29;20035;-85
2022/09/30 05:56:43;;;;;;;7.22;6.55;;;9.30;99.90;;;;;;4931273;29;20032;-85
2022/09/30 05:59:09;;;;;;;6.35;5.85;;;9.30;99.90;;;;;;4930669;29;20028;-85
2022/09/30 06:01:35;;;;;;;8.07;7.35;;;9.30;99.90;;;;;;4931103;29;20032;-84
2022/09/30 06:04:01;;;;;;;8.57;7.78;;;9.30;99.90;;;;;;4931038;29;20035;-85
2022/09/30 06:06:29;;;;;;;7.30;6.43;;;9.30;99.90;;;;;;4930550;29;20024;-85
2022/09/30 06:08:55;;;;;;;8.73;7.15;;;9.20;99.90;;;;;;4914514;29;20036;-85
2022/09/30 06:11:23;;;;;;;8.02;7.32;;;9.30;99.90;;;;;;4932080;29;20549;-85
2022/09/30 06:13:49;;;;;;;9.02;7.63;;;9.30;99.90;;;;;;4930799;29;20055;-85
2022/09/30 06:16:17;;;;;;;7.80;6.55;;;9.30;99.90;;;;;;4929913;29;20486;-84
2022/09/30 06:18:43;;;;;;;10.75;8.40;;;9.30;99.90;;;;;;4930133;29;20060;-85
2022/09/30 06:21:12;;;;;;;8.60;7.85;;;9.30;99.90;;;;;;4929608;29;20055;-85
2022/09/30 06:23:38;;;;;;;10.07;7.88;;;9.50;99.90;;;;;;4930147;29;20028;-85
2022/09/30 06:26:05;;;;;;;9.63;8.52;;;9.30;99.90;;;;;;4914424;29;20505;-85
2022/09/30 06:28:35;;;;;;;9.23;8.10;;;9.30;99.90;;;;;;4930308;29;20116;-85
2022/09/30 06:31:02;;;;;;;7.78;7.07;;;9.30;99.90;;;;;;4914684;29;20060;-85
2022/09/30 06:33:28;;;;;;;10.18;8.48;;;9.30;99.90;;;;;;4930335;29;20462;-85
2022/09/30 06:35:54;;;;;;;10.55;9.48;;;9.30;99.90;;;;;;4930004;29;20028;-85
2022/09/30 06:38:22;;;;;;;10.25;9.00;;;9.30;99.90;;;;;;4929897;29;20040;-85
2022/09/30 06:40:49;;;;;;;11.60;10.40;;;9.30;99.90;;;;;;4930503;29;20016;-85
2022/09/30 06:43:19;;;;;;;10.50;9.48;;;9.30;99.90;;;;;;4915606;29;20032;-85
2022/09/30 06:45:47;;;;;;;13.88;11.05;;;9.40;99.90;;;;;;4930567;29;20032;-85
2022/09/30 06:48:15;;;;;;;14.60;10.90;;;9.40;99.90;;;;;;4929177;29;20031;-85
2022/09/30 06:50:41;;;;;;;12.13;10.80;;;9.40;99.90;;;;;;4915100;29;20060;-86
2022/09/30 06:53:10;;;;;;;14.07;11.50;;;9.40;99.90;;;;;;4923091;29;20095;-87
2022/09/30 06:55:38;;;;;;;11.90;10.73;;;9.40;99.90;;;;;;4931129;29;21384;-85
2022/09/30 06:58:13;;;;;;;16.50;10.05;;;9.40;99.90;;;;;;4916008;29;20044;-85
2022/09/30 07:00:39;;;;;;;13.40;12.07;;;9.40;99.90;;;;;;4912683;29;20039;-87
2022/09/30 07:03:08;;;;;;;12.25;11.07;;;9.40;99.90;;;;;;4927973;29;20028;-87
2022/09/30 07:05:37;;;;;;;15.35;11.73;;;9.50;99.90;;;;;;4912336;29;20477;-87
2022/09/30 07:08:03;;;;;;;14.43;13.07;;;9.50;99.90;;;;;;4927958;29;20032;-85
2022/09/30 07:10:29;;;;;;;16.92;12.77;;;9.50;99.90;;;;;;4914217;29;20030;-84
2022/09/30 07:12:54;;;;;;;13.43;12.25;;;9.50;99.90;;;;;;4910752;29;20088;-87
2022/09/30 07:15:22;;;;;;;16.17;12.05;;;9.50;99.90;;;;;;4943169;29;20402;-87
2022/09/30 07:18:00;;;;;;;17.88;15.82;;;9.60;99.90;;;;;;4912637;29;20123;-87
2022/09/30 07:20:26;;;;;;;13.40;12.13;;;9.60;99.90;;;;;;4943341;29;20051;-87
2022/09/30 07:22:51;;;;;;;17.40;15.45;;;9.60;99.90;;;;;;4912052;29;20518;-86
2022/09/30 07:25:18;;;;;;;18.92;15.45;;;9.70;99.90;;;;;;4928848;29;20032;-86
2022/09/30 07:27:45;;;;;;;16.15;14.70;;;9.60;99.90;;;;;;4927346;29;20024;-87
2022/09/30 07:30:11;;;;;;;25.50;17.90;;;9.70;99.90;;;;;;4913502;29;20032;-84
2022/09/30 07:32:37;;;;;;;17.42;15.43;;;9.70;99.90;;;;;;4932295;29;20512;-85
2022/09/30 07:35:05;;;;;;;19.92;16.67;;;9.70;99.90;;;;;;4925007;29;20047;-85
2022/09/30 07:37:34;;;;;;;20.60;16.95;;;9.80;99.90;;;;;;4928833;29;20017;-84
2022/09/30 07:40:04;;;;;;;17.73;15.98;;;9.70;99.90;;;;;;4912220;29;20038;-84
2022/09/30 07:42:29;;;;;;;17.80;15.95;;;9.80;99.90;;;;;;4932545;29;20024;-85
2022/09/30 07:44:55;;;;;;;21.23;19.00;;;9.90;99.90;;;;;;4930311;29;20036;-86
2022/09/30 07:47:21;;;;;;;20.00;16.85;;;9.90;99.90;;;;;;4914005;29;20040;-85
2022/09/30 07:49:47;;;;;;;22.23;20.13;;;9.90;99.90;;;;;;4929566;29;20106;-85
2022/09/30 07:52:14;;;;;;;19.88;17.40;;;10.00;99.90;;;;;;4929127;29;20048;-85
2022/09/30 07:54:40;;;;;;;23.52;19.40;;;10.00;99.90;;;;;;4929066;29;20036;-85
2022/09/30 07:57:06;;;;;;;23.77;21.33;;;10.00;99.90;;;;;;4927670;29;20052;-85
2022/09/30 07:59:37;;;;;;;22.58;20.17;;;10.00;99.90;;;;;;4932015;29;20508;-86
2022/09/30 08:02:05;;;;;;;27.85;21.40;;;10.10;99.90;;;;;;4930922;29;20051;-85
2022/09/30 08:04:31;;;;;;;26.13;23.50;;;10.10;99.90;;;;;;4932588;29;20047;-85
2022/09/30 08:06:59;;;;;;;26.20;19.50;;;10.10;99.90;;;;;;4931489;29;20047;-86
2022/09/30 08:09:26;;;;;;;22.50;20.08;;;10.10;99.90;;;;;;4932074;29;20035;-85
2022/09/30 08:11:53;;;;;;;24.30;19.90;;;10.20;99.90;;;;;;4931309;29;20087;-85
2022/09/30 08:14:21;;;;;;;25.95;22.00;;;10.20;99.90;;;;;;4932313;29;20034;-85
2022/09/30 08:16:47;;;;;;;32.65;20.33;;;10.20;99.90;;;;;;4932406;29;20036;-85
2022/09/30 08:19:16;;;;;;;20.63;18.48;;;10.30;99.90;;;;;;4931076;29;20114;-85
2022/09/30 08:21:43;;;;;;;20.67;18.47;;;10.30;99.90;;;;;;4931750;29;20115;-86
2022/09/30 08:24:09;;;;;;;20.35;18.58;;;10.30;99.90;;;;;;4931978;29;20032;-85
2022/09/30 08:26:35;;;;;;;25.25;20.70;;;10.40;99.90;;;;;;4930543;29;20032;-86
2022/09/30 08:29:01;;;;;;;23.00;19.42;;;10.40;99.90;;;;;;4931754;29;20051;-86
2022/09/30 08:31:26;;;;;;;25.95;20.80;;;10.50;99.90;;;;;;4929831;29;20040;-85
2022/09/30 08:33:53;;;;;;;22.30;19.40;;;10.60;99.90;;;;;;4930805;29;20031;-86
2022/09/30 08:36:21;;;;;;;22.58;19.88;;;10.60;99.90;;;;;;4929674;29;20405;-84
2022/09/30 08:38:47;;;;;;;20.80;18.42;;;10.60;99.90;;;;;;4931565;29;20059;-86
2022/09/30 08:41:38;;;;;;;23.95;19.85;;;10.70;99.90;;;;;;4930439;29;20024;-86
2022/09/30 08:44:29;;;;;;;22.00;19.83;;;10.70;99.90;;;;;;4931979;29;20052;-85
2022/09/30 08:47:13;;;;;;;21.75;19.25;;;10.80;99.90;;;;;;4930576;29;20478;-86
2022/09/30 08:50:03;;;;;;;23.30;20.85;;;10.80;99.90;;;;;;4931831;29;20034;-85
2022/09/30 08:52:35;;;;;;;22.00;19.50;;;10.90;99.90;;;;;;4930285;29;20036;-85
2022/09/30 08:55:01;;;;;;;20.70;18.63;;;11.00;99.90;;;;;;4931600;29;20052;-86
2022/09/30 08:57:37;;;;;;;22.15;19.83;;;11.10;99.90;;;;;;4930583;29;20036;-85
2022/09/30 09:00:09;;;;;;;22.50;18.02;;;11.10;99.90;;;;;;4930568;29;20036;-85
2022/09/30 09:02:57;;;;;;;21.30;19.17;;;11.20;99.90;;;;;;4931974;29;20030;-85
2022/09/30 09:05:41;;;;;;;23.88;17.02;;;11.30;99.90;;;;;;4930835;29;20024;-85
2022/09/30 09:08:20;;;;;;;18.38;16.48;;;11.40;99.90;;;;;;4931040;29;20119;-86
2022/09/30 09:10:54;;;;;;;20.27;17.42;;;11.40;99.90;;;;;;4930175;29;20038;-85
2022/09/30 09:13:32;;;;;;;18.92;17.00;;;11.50;99.90;;;;;;4932240;29;20115;-86
2022/09/30 09:16:17;;;;;;;16.52;14.82;;;11.60;99.90;;;;;;4931760;29;20110;-86
2022/09/30 09:19:02;;;;;;;16.33;14.57;;;11.70;99.90;;;;;;4931254;29;20060;-87
2022/09/30 09:21:37;;;;;;;14.60;13.18;;;11.70;99.90;;;;;;4922452;29;20048;-86
2022/09/30 09:24:10;;;;;;;15.15;13.65;;;11.80;99.90;;;;;;4923199;29;20032;-86
2022/09/30 09:26:36;;;;;;;15.82;14.30;;;11.80;99.90;;;;;;4930491;29;20554;-86
2022/09/30 09:29:30;;;;;;;14.93;13.52;;;11.90;99.90;;;;;;4929768;29;20043;-86
2022/09/30 09:31:58;;;;;;;16.55;13.18;;;12.00;99.90;;;;;;4930201;29;20024;-86
2022/09/30 09:34:25;;;;;;;13.43;11.63;;;12.00;99.90;;;;;;4932588;29;20039;-86
2022/09/30 09:37:12;;;;;;;13.40;12.02;;;12.10;99.90;;;;;;4930904;29;20024;-86
2022/09/30 09:39:38;;;;;;;13.40;11.85;;;12.10;99.90;;;;;;4915692;29;20067;-86
2022/09/30 09:42:18;;;;;;;11.00;9.57;;;12.20;99.90;;;;;;4930948;29;20040;-87
2022/09/30 09:45:05;;;;;;;12.00;10.38;;;12.30;99.90;;;;;;4915621;29;20043;-86
2022/09/30 09:47:32;;;;;;;16.50;11.35;;;12.30;99.90;;;;;;4930720;29;20024;-87
2022/09/30 09:50:03;;;;;;;9.80;8.80;;;12.40;99.90;;;;;;4896522;29;20060;-86
2022/09/30 09:52:35;;;;;;;10.07;9.05;;;12.40;99.90;;;;;;4897209;29;20137;-87
2022/09/30 09:55:01;;;;;;;10.02;8.90;;;12.50;99.90;;;;;;4912858;29;20044;-86
2022/09/30 09:57:31;;;;;;;8.85;8.05;;;12.50;99.90;;;;;;4914221;29;20116;-86
2022/09/30 10:01:09;;;;;;;7.32;6.72;;;12.50;99.90;;;;;;4915579;29;20036;-86
2022/09/30 10:03:04;;;;;;;7.20;6.45;;;12.60;99.90;;;;;;4916216;29;20029;-86
2022/09/30 10:05:38;;;;;;;6.43;5.82;;;12.60;99.90;;;;;;4913545;29;20035;-86
2022/09/30 10:08:21;;;;;;;8.07;6.53;;;12.70;99.90;;;;;;4930498;29;20068;-87
2022/09/30 10:10:53;;;;;;;6.00;5.45;;;12.80;99.90;;;;;;4916623;29;20032;-87
2022/09/30 10:13:24;;;;;;;6.55;5.22;;;12.80;99.90;;;;;;4896259;29;20031;-86
2022/09/30 10:15:55;;;;;;;7.55;5.95;;;12.80;99.90;;;;;;4929429;29;20036;-87
2022/09/30 10:18:36;;;;;;;9.15;5.22;;;12.80;99.90;;;;;;4898869;29;20043;-86
2022/09/30 10:21:23;;;;;;;5.75;4.00;;;12.80;99.90;;;;;;4913971;29;20112;-87
2022/09/30 10:23:49;;;;;;;4.03;3.20;;;12.80;99.90;;;;;;4930322;29;20035;-87
2022/09/30 10:26:19;;;;;;;3.55;3.25;;;12.80;99.90;;;;;;4931071;29;20046;-88
2022/09/30 10:28:48;;;;;;;3.78;3.47;;;12.80;99.90;;;;;;4929342;29;20024;-87
2022/09/30 10:31:27;;;;;;;4.30;3.95;;;12.80;99.90;;;;;;4914687;29;20502;-86
2022/09/30 10:33:59;;;;;;;3.75;3.33;;;12.90;99.90;;;;;;4945636;29;20036;-86
2022/09/30 10:36:31;;;;;;;4.30;3.10;;;12.90;99.90;;;;;;4913387;29;20031;-87
2022/09/30 10:39:10;;;;;;;4.72;4.35;;;12.90;99.90;;;;;;4929919;29;20039;-86
2022/09/30 10:41:37;;;;;;;5.25;3.78;;;13.00;99.90;;;;;;4939407;29;20024;-86
2022/09/30 10:44:12;;;;;;;4.25;2.60;;;13.00;99.90;;;;;;4909825;29;20025;-86
2022/09/30 10:46:44;;;;;;;4.03;3.45;;;13.00;99.90;;;;;;4894495;29;20032;-86
2022/09/30 10:49:18;;;;;;;4.20;2.85;;;13.00;99.90;;;;;;4909569;29;20067;-86
2022/09/30 10:51:45;;;;;;;3.65;3.35;;;13.10;99.90;;;;;;4893928;29;20048;-86
2022/09/30 10:54:34;;;;;;;6.20;4.35;;;13.20;99.90;;;;;;4902737;29;20032;-85
2022/09/30 10:57:03;;;;;;;3.10;2.83;;;13.30;99.90;;;;;;4928636;29;20032;-85
2022/09/30 10:59:37;;;;;;;4.20;3.83;;;13.30;99.90;;;;;;4927764;29;20031;-86
2022/09/30 11:02:18;;;;;;;4.32;3.47;;;13.30;99.90;;;;;;4928347;29;20059;-86
2022/09/30 11:05:14;;;;;;;5.40;4.10;;;13.30;99.90;;;;;;4929332;29;20028;-85
2022/09/30 11:07:56;;;;;;;3.33;3.03;;;13.40;99.90;;;;;;4916076;29;20024;-86
2022/09/30 11:10:50;;;;;;;8.38;3.15;;;13.30;99.90;;;;;;4912519;29;20444;-85
2022/09/30 11:13:25;;;;;;;3.55;3.25;;;13.40;99.90;;;;;;4927874;29;20398;-86
2022/09/30 11:16:16;;;;;;;3.80;3.20;;;13.40;99.90;;;;;;4927767;29;20028;-87
2022/09/30 11:19:08;;;;;;;3.58;2.97;;;13.50;99.90;;;;;;4928136;29;20036;-86
2022/09/30 11:21:54;;;;;;;2.60;2.40;;;13.60;99.90;;;;;;4927855;29;20052;-86
2022/09/30 11:24:35;;;;;;;4.93;2.13;;;13.50;99.90;;;;;;4929307;29;20084;-86
2022/09/30 11:27:24;;;;;;;2.22;1.85;;;13.50;99.90;;;;;;4928373;29;20080;-84
2022/09/30 11:30:10;;;;;;;7.60;3.50;;;13.50;99.90;;;;;;4943448;29;20052;-86
2022/09/30 11:32:51;;;;;;;3.75;3.03;;;13.60;99.90;;;;;;4927744;29;20035;-86
2022/09/30 11:35:55;;;;;;;2.10;1.95;;;13.60;99.90;;;;;;4927962;29;20381;-86
2022/09/30 11:38:36;;;;;;;3.05;2.35;;;13.60;99.90;;;;;;4932547;29;20043;-86
2022/09/30 11:41:19;;;;;;;4.60;2.95;;;13.60;99.90;;;;;;4923388;29;20037;-86
2022/09/30 11:44:04;;;;;;;4.05;2.15;;;13.50;99.90;;;;;;4933316;29;20012;-86
2022/09/30 11:46:33;;;;;;;2.97;2.63;;;13.50;99.90;;;;;;4941792;29;20039;-83
2022/09/30 11:49:13;;;;;;;4.63;2.22;;;13.60;99.90;;;;;;4931110;29;20063;-86
2022/09/30 11:51:47;;;;;;;3.70;2.65;;;13.60;99.90;;;;;;4932019;29;20032;-87
2022/09/30 11:54:47;;;;;;;3.20;2.53;;;13.60;99.90;;;;;;4932528;29;20032;-87
2022/09/30 11:57:16;;;;;;;4.07;3.45;;;13.60;99.90;;;;;;4931491;29;20040;-87
2022/09/30 11:59:48;;;;;;;3.35;2.63;;;13.70;99.90;;;;;;4931935;29;20068;-88
2022/09/30 12:02:36;;;;;;;3.47;2.72;;;13.70;99.90;;;;;;4915013;29;20031;-87
2022/09/30 12:05:36;;;;;;;3.28;2.63;;;13.80;99.90;;;;;;4922753;29;20040;-86
2022/09/30 12:08:21;;;;;;;2.55;2.33;;;13.80;99.90;;;;;;4930795;29;20032;-87
2022/09/30 12:10:53;;;;;;;24.55;7.13;;;13.80;99.90;;;;;;4915559;29;20035;-87
2022/09/30 12:13:36;;;;;;;16.52;5.43;;;13.80;99.90;;;;;;4932045;29;20024;-87
2022/09/30 12:16:05;;;;;;;4.30;2.83;;;13.90;99.90;;;;;;4930950;29;20028;-87
2022/09/30 12:18:40;;;;;;;4.20;3.58;;;13.90;99.90;;;;;;4931212;29;20438;-87
2022/09/30 12:21:15;;;;;;;8.55;4.38;;;14.00;99.90;;;;;;4930777;29;20052;-87
2022/09/30 12:23:57;;;;;;;7.03;3.00;;;14.00;99.90;;;;;;4930314;29;20079;-88
2022/09/30 12:26:23;;;;;;;6.80;3.22;;;14.10;99.90;;;;;;4932031;29;20088;-87
2022/09/30 12:32:09;;;;;;;3.40;2.38;;;14.20;99.90;;;;;;4931710;29;20063;-87
2022/09/30 12:35:14;;;;;;;5.25;4.15;;;14.20;99.90;;;;;;4918433;29;20067;-87
2022/09/30 12:37:58;;;;;;;4.00;2.53;;;14.10;99.90;;;;;;4929465;29;20040;-87
2022/09/30 12:40:52;;;;;;;1.77;1.67;;;14.20;99.90;;;;;;4930883;29;20047;-87
2022/09/30 12:43:38;;;;;;;4.00;1.92;;;14.20;99.90;;;;;;4931429;29;20032;-87
2022/09/30 12:46:43;;;;;;;2.67;1.50;;;14.30;99.90;;;;;;4930514;29;20025;-86
2022/09/30 12:49:14;;;;;;;2.45;1.40;;;14.30;99.90;;;;;;4930632;29;20028;-86
2022/09/30 12:51:47;;;;;;;2.58;1.42;;;14.20;99.90;;;;;;4929973;29;20032;-87
2022/09/30 12:54:16;;;;;;;2.05;1.40;;;14.20;99.90;;;;;;4937216;29;20048;-88
2022/09/30 12:56:45;;;;;;;3.05;1.38;;;14.20;99.90;;;;;;4919292;29;20028;-87
2022/09/30 12:59:13;;;;;;;1.15;1.02;;;14.20;99.90;;;;;;4930504;29;20040;-87
2022/09/30 13:01:41;;;;;;;1.70;1.20;;;14.20;99.90;;;;;;4931519;29;20064;-86
2022/09/30 13:04:07;;;;;;;2.28;1.33;;;14.20;99.90;;;;;;4930970;29;20466;-87
2022/09/30 13:06:45;;;;;;;4.30;1.30;;;14.30;99.90;;;;;;4930276;29;20032;-87
2022/09/30 13:09:17;;;;;;;2.13;0.85;;;14.40;99.90;;;;;;4914218;29;20091;-86
2022/09/30 13:11:43;;;;;;;1.02;0.98;;;14.50;99.90;;;;;;4931247;29;20096;-87
2022/09/30 13:14:36;;;;;;;1.92;1.50;;;14.50;99.90;;;;;;4931482;29;20028;-87
2022/09/30 13:17:09;;;;;;;2.80;1.00;;;14.50;99.90;;;;;;4930594;29;20077;-87
2022/09/30 13:19:35;;;;;;;1.40;1.30;;;14.30;99.90;;;;;;4914114;29;20071;-87